sensor_id;sensor_type;location;lat;lon;timestamp;temperature;humidity
21403;DHT22;10862;51.886;17.078;2022-11-15T00:00:46;5.40;99.90
21403;DHT22;10862;51.886;17.078;2022-11-15T00:03:17;5.40;99.90
21403;DHT22;10862;51.886;17.078;2022-11-15T00:05:43;5.40;99.90
21403;DHT22;10862;51.886;17.078;2022-11-15T00:08:09;5.30;99.90
21403;DHT22;10862;51.886;17.078;2022-11-15T00:10:36;5.30;99.90
21403;DHT22;10862;51.886;17.078;2022-11-15T00:13:10;5.40;99.90
21403;DHT22;10862;51.886;17.078;2022-11-15T00:15:40;5.30;99.90
21403;DHT22;10862;51.886;17.078;2022-11-15T00:18:10;5.30;99.90
21403;DHT22;10862;51.886;17.078;2022-11-15T00:20:37;5.30;99.90
21403;DHT22;10862;51.886;17.078;2022-11-15T00:23:04;5.30;99.90
21403;DHT22;10862;51.886;17.078;2022-11-15T00:25:30;5.30;99.90
21403;DHT22;10862;51.886;17.078;2022-11-15T00:27:56;5.20;99.90
21403;DHT22;10862;51.886;17.078;2022-11-15T00:30:22;5.20;99.90
21403;DHT22;10862;51.886;17.078;2022-11-15T00:32:48;5.10;99.90
21403;DHT22;10862;51.886;17.078;2022-11-15T00:35:14;5.20;99.90
21403;DHT22;10862;51.886;17.078;2022-11-15T00:37:39;5.20;99.90
21403;DHT22;10862;51.886;17.078;2022-11-15T00:40:06;5.20;99.90
21403;DHT22;10862;51.886;17.078;2022-11-15T00:42:32;5.20;99.90
21403;DHT22;10862;51.886;17.078;2022-11-15T00:44:57;5.10;99.90
21403;DHT22;10862;51.886;17.078;2022-11-15T00:47:23;5.30;99.90
21403;DHT22;10862;51.886;17.078;2022-11-15T00:49:48;5.20;99.90
21403;DHT22;10862;51.886;17.078;2022-11-15T00:52:14;5.10;99.90
21403;DHT22;10862;51.886;17.078;2022-11-15T00:54:40;5.20;99.90
21403;DHT22;10862;51.886;17.078;2022-11-15T00:57:05;5.10;99.90
21403;DHT22;10862;51.886;17.078;2022-11-15T00:59:31;5.10;99.90
21403;DHT22;10862;51.886;17.078;2022-11-15T01:01:56;5.10;99.90
21403;DHT22;10862;51.886;17.078;2022-11-15T01:04:22;5.00;99.90
21403;DHT22;10862;51.886;17.078;2022-11-15T01:06:47;5.10;99.90
21403;DHT22;10862;51.886;17.078;2022-11-15T01:09:13;5.00;99.90
21403;DHT22;10862;51.886;17.078;2022-11-15T01:11:39;5.00;99.90
21403;DHT22;10862;51.886;17.078;2022-11-15T01:14:05;5.10;99.90
21403;DHT22;10862;51.886;17.078;2022-11-15T01:16:30;5.00;99.90
21403;DHT22;10862;51.886;17.078;2022-11-15T01:18:58;5.00;99.90
21403;DHT22;10862;51.886;17.078;2022-11-15T01:21:23;4.90;99.90
21403;DHT22;10862;51.886;17.078;2022-11-15T01:23:53;4.90;99.90
21403;DHT22;10862;51.886;17.078;2022-11-15T01:26:19;4.90;99.90
21403;DHT22;10862;51.886;17.078;2022-11-15T01:28:45;4.70;99.90
21403;DHT22;10862;51.886;17.078;2022-11-15T01:31:19;4.70;99.90
21403;DHT22;10862;51.886;17.078;2022-11-15T01:33:46;4.60;99.90
21403;DHT22;10862;51.886;17.078;2022-11-15T01:36:20;4.60;99.90
21403;DHT22;10862;51.886;17.078;2022-11-15T01:38:58;4.60;99.90
21403;DHT22;10862;51.886;17.078;2022-11-15T01:41:29;4.50;99.90
21403;DHT22;10862;51.886;17.078;2022-11-15T01:44:25;4.40;99.90
21403;DHT22;10862;51.886;17.078;2022-11-15T01:46:46;4.50;99.90
21403;DHT22;10862;51.886;17.078;2022-11-15T01:49:18;4.50;99.90
21403;DHT22;10862;51.886;17.078;2022-11-15T01:51:45;4.40;99.90
21403;DHT22;10862;51.886;17.078;2022-11-15T01:54:14;4.40;99.90
21403;DHT22;10862;51.886;17.078;2022-11-15T01:56:45;4.50;99.90
21403;DHT22;10862;51.886;17.078;2022-11-15T01:59:12;4.40;99.90
21403;DHT22;10862;51.886;17.078;2022-11-15T02:01:38;4.40;99.90
21403;DHT22;10862;51.886;17.078;2022-11-15T02:04:10;4.10;99.90
21403;DHT22;10862;51.886;17.078;2022-11-15T02:06:37;3.90;99.90
21403;DHT22;10862;51.886;17.078;2022-11-15T02:09:03;3.90;99.90
21403;DHT22;10862;51.886;17.078;2022-11-15T02:11:28;4.10;99.90
21403;DHT22;10862;51.886;17.078;2022-11-15T02:13:55;4.20;99.90
21403;DHT22;10862;51.886;17.078;2022-11-15T02:17:13;4.30;99.90
21403;DHT22;10862;51.886;17.078;2022-11-15T02:30:48;4.10;99.90
21403;DHT22;10862;51.886;17.078;2022-11-15T02:33:41;4.00;99.90
21403;DHT22;10862;51.886;17.078;2022-11-15T02:36:34;4.00;99.90
21403;DHT22;10862;51.886;17.078;2022-11-15T02:39:26;4.00;99.90
21403;DHT22;10862;51.886;17.078;2022-11-15T02:42:04;3.90;99.90
21403;DHT22;10862;51.886;17.078;2022-11-15T02:44:55;3.80;99.90
21403;DHT22;10862;51.886;17.078;2022-11-15T02:47:23;3.90;99.90
21403;DHT22;10862;51.886;17.078;2022-11-15T02:49:52;3.70;99.90
21403;DHT22;10862;51.886;17.078;2022-11-15T02:52:21;3.70;99.90
21403;DHT22;10862;51.886;17.078;2022-11-15T02:54:58;3.90;99.90
21403;DHT22;10862;51.886;17.078;2022-11-15T03:00:10;3.60;99.90
21403;DHT22;10862;51.886;17.078;2022-11-15T03:08:18;3.50;99.90
21403;DHT22;10862;51.886;17.078;2022-11-15T03:13:53;3.50;99.90
21403;DHT22;10862;51.886;17.078;2022-11-15T03:19:19;3.70;99.90
21403;DHT22;10862;51.886;17.078;2022-11-15T03:21:47;3.50;99.90
21403;DHT22;10862;51.886;17.078;2022-11-15T03:24:16;3.70;99.90
21403;DHT22;10862;51.886;17.078;2022-11-15T03:26:44;3.80;99.90
21403;DHT22;10862;51.886;17.078;2022-11-15T03:29:17;3.80;99.90
21403;DHT22;10862;51.886;17.078;2022-11-15T03:31:48;3.70;99.90
21403;DHT22;10862;51.886;17.078;2022-11-15T03:34:58;3.80;99.90
21403;DHT22;10862;51.886;17.078;2022-11-15T03:37:27;3.80;99.90
21403;DHT22;10862;51.886;17.078;2022-11-15T03:39:54;3.80;99.90
21403;DHT22;10862;51.886;17.078;2022-11-15T03:42:42;3.70;99.90
21403;DHT22;10862;51.886;17.078;2022-11-15T03:45:16;3.80;99.90
21403;DHT22;10862;51.886;17.078;2022-11-15T03:47:59;3.80;99.90
21403;DHT22;10862;51.886;17.078;2022-11-15T03:50:27;3.90;99.90
21403;DHT22;10862;51.886;17.078;2022-11-15T03:52:54;3.90;99.90
21403;DHT22;10862;51.886;17.078;2022-11-15T03:55:21;3.90;99.90
21403;DHT22;10862;51.886;17.078;2022-11-15T03:57:49;4.00;99.90
21403;DHT22;10862;51.886;17.078;2022-11-15T04:00:15;4.00;99.90
21403;DHT22;10862;51.886;17.078;2022-11-15T04:02:41;4.00;99.90
21403;DHT22;10862;51.886;17.078;2022-11-15T04:05:07;4.00;99.90
21403;DHT22;10862;51.886;17.078;2022-11-15T04:07:33;4.10;99.90
21403;DHT22;10862;51.886;17.078;2022-11-15T04:09:58;4.10;99.90
21403;DHT22;10862;51.886;17.078;2022-11-15T04:12:37;4.10;99.90
21403;DHT22;10862;51.886;17.078;2022-11-15T04:15:06;4.00;99.90
21403;DHT22;10862;51.886;17.078;2022-11-15T04:17:49;4.10;99.90
21403;DHT22;10862;51.886;17.078;2022-11-15T04:20:22;4.00;99.90
21403;DHT22;10862;51.886;17.078;2022-11-15T04:25:58;4.10;99.90
21403;DHT22;10862;51.886;17.078;2022-11-15T04:28:24;4.00;99.90
21403;DHT22;10862;51.886;17.078;2022-11-15T04:30:50;3.90;99.90
21403;DHT22;10862;51.886;17.078;2022-11-15T04:33:15;3.90;99.90
21403;DHT22;10862;51.886;17.078;2022-11-15T04:35:42;3.80;99.90
21403;DHT22;10862;51.886;17.078;2022-11-15T04:38:09;3.90;99.90
21403;DHT22;10862;51.886;17.078;2022-11-15T04:40:36;3.70;99.90
21403;DHT22;10862;51.886;17.078;2022-11-15T04:43:02;3.70;99.90
21403;DHT22;10862;51.886;17.078;2022-11-15T04:45:28;3.60;99.90
21403;DHT22;10862;51.886;17.078;2022-11-15T04:47:53;3.50;99.90
21403;DHT22;10862;51.886;17.078;2022-11-15T04:50:19;3.50;99.90
21403;DHT22;10862;51.886;17.078;2022-11-15T04:52:51;3.50;99.90
21403;DHT22;10862;51.886;17.078;2022-11-15T04:55:17;3.30;99.90
21403;DHT22;10862;51.886;17.078;2022-11-15T04:57:43;3.30;99.90
21403;DHT22;10862;51.886;17.078;2022-11-15T05:00:11;3.30;99.90
21403;DHT22;10862;51.886;17.078;2022-11-15T05:02:38;3.20;99.90
21403;DHT22;10862;51.886;17.078;2022-11-15T05:05:24;3.20;99.90
21403;DHT22;10862;51.886;17.078;2022-11-15T05:07:50;2.90;99.90
21403;DHT22;10862;51.886;17.078;2022-11-15T05:10:16;2.70;99.90
21403;DHT22;10862;51.886;17.078;2022-11-15T05:12:42;2.60;99.90
21403;DHT22;10862;51.886;17.078;2022-11-15T05:15:08;2.80;99.90
21403;DHT22;10862;51.886;17.078;2022-11-15T05:17:34;2.70;99.90
21403;DHT22;10862;51.886;17.078;2022-11-15T05:20:00;2.60;99.90
21403;DHT22;10862;51.886;17.078;2022-11-15T05:22:26;2.50;99.90
21403;DHT22;10862;51.886;17.078;2022-11-15T05:24:52;2.30;99.90
21403;DHT22;10862;51.886;17.078;2022-11-15T05:27:17;2.20;99.90
21403;DHT22;10862;51.886;17.078;2022-11-15T05:29:43;2.10;99.90
21403;DHT22;10862;51.886;17.078;2022-11-15T05:32:09;2.20;99.90
21403;DHT22;10862;51.886;17.078;2022-11-15T05:34:35;2.20;99.90
21403;DHT22;10862;51.886;17.078;2022-11-15T05:37:01;2.20;99.90
21403;DHT22;10862;51.886;17.078;2022-11-15T05:39:27;2.20;99.90
21403;DHT22;10862;51.886;17.078;2022-11-15T05:41:56;2.10;99.90
21403;DHT22;10862;51.886;17.078;2022-11-15T05:44:25;2.10;99.90
21403;DHT22;10862;51.886;17.078;2022-11-15T05:46:52;2.10;99.90
21403;DHT22;10862;51.886;17.078;2022-11-15T05:49:21;2.20;99.90
21403;DHT22;10862;51.886;17.078;2022-11-15T05:51:49;2.20;99.90
21403;DHT22;10862;51.886;17.078;2022-11-15T05:54:17;2.30;99.90
21403;DHT22;10862;51.886;17.078;2022-11-15T05:56:43;2.30;99.90
21403;DHT22;10862;51.886;17.078;2022-11-15T05:59:09;2.20;99.90
21403;DHT22;10862;51.886;17.078;2022-11-15T06:01:36;2.10;99.90
21403;DHT22;10862;51.886;17.078;2022-11-15T06:04:02;2.10;99.90
21403;DHT22;10862;51.886;17.078;2022-11-15T06:06:28;2.10;99.90
21403;DHT22;10862;51.886;17.078;2022-11-15T06:08:54;2.20;99.90
21403;DHT22;10862;51.886;17.078;2022-11-15T06:11:19;2.30;99.90
21403;DHT22;10862;51.886;17.078;2022-11-15T06:13:45;2.30;99.90
21403;DHT22;10862;51.886;17.078;2022-11-15T06:16:11;2.20;99.90
21403;DHT22;10862;51.886;17.078;2022-11-15T06:18:37;2.50;99.90
21403;DHT22;10862;51.886;17.078;2022-11-15T06:21:02;2.30;99.90
21403;DHT22;10862;51.886;17.078;2022-11-15T06:23:31;2.40;99.90
21403;DHT22;10862;51.886;17.078;2022-11-15T06:25:58;2.40;99.90
21403;DHT22;10862;51.886;17.078;2022-11-15T06:28:25;2.60;99.90
21403;DHT22;10862;51.886;17.078;2022-11-15T06:30:53;2.40;99.90
21403;DHT22;10862;51.886;17.078;2022-11-15T06:33:18;2.40;99.90
21403;DHT22;10862;51.886;17.078;2022-11-15T06:35:44;2.40;99.90
21403;DHT22;10862;51.886;17.078;2022-11-15T06:38:10;2.30;99.90
21403;DHT22;10862;51.886;17.078;2022-11-15T06:40:37;2.40;99.90
21403;DHT22;10862;51.886;17.078;2022-11-15T06:43:04;2.50;99.90
21403;DHT22;10862;51.886;17.078;2022-11-15T06:45:30;2.40;99.90
21403;DHT22;10862;51.886;17.078;2022-11-15T06:47:56;2.50;99.90
21403;DHT22;10862;51.886;17.078;2022-11-15T06:50:22;2.50;99.90
21403;DHT22;10862;51.886;17.078;2022-11-15T06:52:48;2.70;99.90
21403;DHT22;10862;51.886;17.078;2022-11-15T06:55:14;2.60;99.90
21403;DHT22;10862;51.886;17.078;2022-11-15T06:57:52;2.60;99.90
21403;DHT22;10862;51.886;17.078;2022-11-15T07:00:19;2.70;99.90
21403;DHT22;10862;51.886;17.078;2022-11-15T07:02:46;2.70;99.90
21403;DHT22;10862;51.886;17.078;2022-11-15T07:05:13;2.70;99.90
21403;DHT22;10862;51.886;17.078;2022-11-15T07:07:39;2.80;99.90
21403;DHT22;10862;51.886;17.078;2022-11-15T07:10:06;3.10;99.90
21403;DHT22;10862;51.886;17.078;2022-11-15T07:12:32;3.10;99.90
21403;DHT22;10862;51.886;17.078;2022-11-15T07:14:57;3.10;99.90
21403;DHT22;10862;51.886;17.078;2022-11-15T07:17:23;3.20;99.90
21403;DHT22;10862;51.886;17.078;2022-11-15T07:19:48;3.30;99.90
21403;DHT22;10862;51.886;17.078;2022-11-15T07:22:14;3.30;99.90
21403;DHT22;10862;51.886;17.078;2022-11-15T07:24:40;3.40;99.90
21403;DHT22;10862;51.886;17.078;2022-11-15T07:27:05;3.40;99.90
21403;DHT22;10862;51.886;17.078;2022-11-15T07:29:31;3.40;99.90
21403;DHT22;10862;51.886;17.078;2022-11-15T07:31:57;3.60;99.90
21403;DHT22;10862;51.886;17.078;2022-11-15T07:34:22;3.70;99.90
21403;DHT22;10862;51.886;17.078;2022-11-15T07:36:49;3.80;99.90
21403;DHT22;10862;51.886;17.078;2022-11-15T07:39:14;3.80;99.90
21403;DHT22;10862;51.886;17.078;2022-11-15T07:41:40;3.90;99.90
21403;DHT22;10862;51.886;17.078;2022-11-15T07:44:06;4.00;99.90
21403;DHT22;10862;51.886;17.078;2022-11-15T07:46:31;4.00;99.90
21403;DHT22;10862;51.886;17.078;2022-11-15T07:48:57;4.10;99.90
21403;DHT22;10862;51.886;17.078;2022-11-15T07:51:23;4.30;99.90
21403;DHT22;10862;51.886;17.078;2022-11-15T07:53:49;4.30;99.90
21403;DHT22;10862;51.886;17.078;2022-11-15T07:56:14;4.40;99.90
21403;DHT22;10862;51.886;17.078;2022-11-15T07:58:40;4.50;99.90
21403;DHT22;10862;51.886;17.078;2022-11-15T08:01:08;4.40;99.90
21403;DHT22;10862;51.886;17.078;2022-11-15T08:03:34;4.60;99.90
21403;DHT22;10862;51.886;17.078;2022-11-15T08:06:00;4.70;99.90
21403;DHT22;10862;51.886;17.078;2022-11-15T08:08:25;4.80;99.90
21403;DHT22;10862;51.886;17.078;2022-11-15T08:10:51;4.90;99.90
21403;DHT22;10862;51.886;17.078;2022-11-15T08:13:17;5.10;99.90
21403;DHT22;10862;51.886;17.078;2022-11-15T08:15:42;5.00;99.90
21403;DHT22;10862;51.886;17.078;2022-11-15T08:18:14;5.10;99.90
21403;DHT22;10862;51.886;17.078;2022-11-15T08:20:41;5.20;99.90
21403;DHT22;10862;51.886;17.078;2022-11-15T08:23:09;5.30;99.90
21403;DHT22;10862;51.886;17.078;2022-11-15T08:25:35;5.50;99.90
21403;DHT22;10862;51.886;17.078;2022-11-15T08:28:03;5.40;99.90
21403;DHT22;10862;51.886;17.078;2022-11-15T08:30:30;5.70;99.90
21403;DHT22;10862;51.886;17.078;2022-11-15T08:32:57;5.80;99.90
21403;DHT22;10862;51.886;17.078;2022-11-15T08:35:23;5.80;99.90
21403;DHT22;10862;51.886;17.078;2022-11-15T08:37:49;5.90;99.90
21403;DHT22;10862;51.886;17.078;2022-11-15T08:40:15;6.20;99.90
21403;DHT22;10862;51.886;17.078;2022-11-15T08:42:41;6.30;99.90
21403;DHT22;10862;51.886;17.078;2022-11-15T08:45:07;6.40;99.90
21403;DHT22;10862;51.886;17.078;2022-11-15T08:47:34;6.30;99.90
21403;DHT22;10862;51.886;17.078;2022-11-15T08:49:59;6.40;99.90
21403;DHT22;10862;51.886;17.078;2022-11-15T08:52:25;6.50;99.90
21403;DHT22;10862;51.886;17.078;2022-11-15T08:54:51;6.60;99.90
21403;DHT22;10862;51.886;17.078;2022-11-15T08:57:17;7.10;99.90
21403;DHT22;10862;51.886;17.078;2022-11-15T08:59:42;7.10;99.90
21403;DHT22;10862;51.886;17.078;2022-11-15T09:02:13;7.30;99.90
21403;DHT22;10862;51.886;17.078;2022-11-15T09:04:40;7.30;99.90
21403;DHT22;10862;51.886;17.078;2022-11-15T09:07:07;7.40;99.90
21403;DHT22;10862;51.886;17.078;2022-11-15T09:09:32;7.90;99.90
21403;DHT22;10862;51.886;17.078;2022-11-15T09:11:58;8.10;99.90
21403;DHT22;10862;51.886;17.078;2022-11-15T09:14:23;8.50;99.90
21403;DHT22;10862;51.886;17.078;2022-11-15T09:16:49;8.70;99.90
21403;DHT22;10862;51.886;17.078;2022-11-15T09:19:14;8.70;99.90
21403;DHT22;10862;51.886;17.078;2022-11-15T09:21:40;9.00;99.90
21403;DHT22;10862;51.886;17.078;2022-11-15T09:24:06;9.00;99.90
21403;DHT22;10862;51.886;17.078;2022-11-15T09:26:31;9.30;99.90
21403;DHT22;10862;51.886;17.078;2022-11-15T09:28:57;9.20;99.90
21403;DHT22;10862;51.886;17.078;2022-11-15T09:31:23;9.40;99.90
21403;DHT22;10862;51.886;17.078;2022-11-15T09:33:48;9.40;99.90
21403;DHT22;10862;51.886;17.078;2022-11-15T09:36:14;9.60;99.90
21403;DHT22;10862;51.886;17.078;2022-11-15T09:38:39;9.50;99.90
21403;DHT22;10862;51.886;17.078;2022-11-15T09:49:36;10.60;99.90
21403;DHT22;10862;51.886;17.078;2022-11-15T09:52:02;10.70;99.90
21403;DHT22;10862;51.886;17.078;2022-11-15T09:57:04;10.50;99.90
21403;DHT22;10862;51.886;17.078;2022-11-15T10:05:04;10.30;99.90
21403;DHT22;10862;51.886;17.078;2022-11-15T10:10:36;10.70;99.90
21403;DHT22;10862;51.886;17.078;2022-11-15T10:13:04;10.80;99.90
21403;DHT22;10862;51.886;17.078;2022-11-15T10:15:30;10.80;99.90
21403;DHT22;10862;51.886;17.078;2022-11-15T10:18:16;10.40;99.90
21403;DHT22;10862;51.886;17.078;2022-11-15T10:20:55;10.70;99.90
21403;DHT22;10862;51.886;17.078;2022-11-15T10:23:23;10.60;99.90
21403;DHT22;10862;51.886;17.078;2022-11-15T10:25:59;10.30;99.90
21403;DHT22;10862;51.886;17.078;2022-11-15T10:28:33;10.10;99.90
21403;DHT22;10862;51.886;17.078;2022-11-15T10:31:00;10.20;99.90
21403;DHT22;10862;51.886;17.078;2022-11-15T10:44:09;10.20;99.90
21403;DHT22;10862;51.886;17.078;2022-11-15T10:46:37;10.10;99.90
21403;DHT22;10862;51.886;17.078;2022-11-15T10:49:30;10.20;99.90
21403;DHT22;10862;51.886;17.078;2022-11-15T10:52:09;10.20;99.90
21403;DHT22;10862;51.886;17.078;2022-11-15T10:55:03;10.40;99.90
21403;DHT22;10862;51.886;17.078;2022-11-15T10:57:32;10.10;99.90
21403;DHT22;10862;51.886;17.078;2022-11-15T11:00:06;10.20;99.90
21403;DHT22;10862;51.886;17.078;2022-11-15T11:02:40;10.30;99.90
21403;DHT22;10862;51.886;17.078;2022-11-15T11:08:05;10.30;99.90
21403;DHT22;10862;51.886;17.078;2022-11-15T11:10:31;10.40;99.90
21403;DHT22;10862;51.886;17.078;2022-11-15T11:13:37;10.00;99.90
21403;DHT22;10862;51.886;17.078;2022-11-15T11:19:04;10.10;99.90
21403;DHT22;10862;51.886;17.078;2022-11-15T11:27:26;10.30;99.90
21403;DHT22;10862;51.886;17.078;2022-11-15T11:35:30;10.70;99.90
21403;DHT22;10862;51.886;17.078;2022-11-15T11:41:00;11.00;99.90
21403;DHT22;10862;51.886;17.078;2022-11-15T11:43:50;10.90;99.90
21403;DHT22;10862;51.886;17.078;2022-11-15T11:46:23;10.70;99.90
21403;DHT22;10862;51.886;17.078;2022-11-15T11:49:00;10.80;99.90
21403;DHT22;10862;51.886;17.078;2022-11-15T11:51:34;10.70;99.90
21403;DHT22;10862;51.886;17.078;2022-11-15T11:56:40;10.50;99.90
21403;DHT22;10862;51.886;17.078;2022-11-15T11:59:41;10.40;99.90
21403;DHT22;10862;51.886;17.078;2022-11-15T12:02:38;10.50;99.90
21403;DHT22;10862;51.886;17.078;2022-11-15T12:05:22;10.80;99.90
21403;DHT22;10862;51.886;17.078;2022-11-15T12:07:54;10.80;99.90
21403;DHT22;10862;51.886;17.078;2022-11-15T12:10:29;10.90;99.90
21403;DHT22;10862;51.886;17.078;2022-11-15T12:15:29;10.80;99.90
21403;DHT22;10862;51.886;17.078;2022-11-15T12:17:57;10.80;99.90
21403;DHT22;10862;51.886;17.078;2022-11-15T12:20:35;10.60;99.90
21403;DHT22;10862;51.886;17.078;2022-11-15T12:23:12;10.50;99.90
21403;DHT22;10862;51.886;17.078;2022-11-15T12:26:03;10.60;99.90
21403;DHT22;10862;51.886;17.078;2022-11-15T12:33:49;10.80;99.90
21403;DHT22;10862;51.886;17.078;2022-11-15T12:39:00;11.00;99.90
21403;DHT22;10862;51.886;17.078;2022-11-15T12:41:32;11.10;99.90
21403;DHT22;10862;51.886;17.078;2022-11-15T12:43:59;11.10;99.90
21403;DHT22;10862;51.886;17.078;2022-11-15T12:49:02;11.10;99.90
21403;DHT22;10862;51.886;17.078;2022-11-15T13:02:42;10.90;99.90
21403;DHT22;10862;51.886;17.078;2022-11-15T13:17:48;11.10;99.90
21403;DHT22;10862;51.886;17.078;2022-11-15T13:22:41;11.10;99.90
21403;DHT22;10862;51.886;17.078;2022-11-15T13:27:50;11.00;99.90
21403;DHT22;10862;51.886;17.078;2022-11-15T13:30:30;10.90;99.90
21403;DHT22;10862;51.886;17.078;2022-11-15T13:33:18;10.90;99.90
21403;DHT22;10862;51.886;17.078;2022-11-15T13:36:02;11.00;99.90
21403;DHT22;10862;51.886;17.078;2022-11-15T13:38:30;10.90;99.90
21403;DHT22;10862;51.886;17.078;2022-11-15T13:40:58;10.90;99.90
21403;DHT22;10862;51.886;17.078;2022-11-15T13:43:29;10.90;99.90
21403;DHT22;10862;51.886;17.078;2022-11-15T13:48:45;10.90;99.90
21403;DHT22;10862;51.886;17.078;2022-11-15T13:51:40;10.90;99.90
21403;DHT22;10862;51.886;17.078;2022-11-15T13:56:59;10.90;99.90
21403;DHT22;10862;51.886;17.078;2022-11-15T13:59:31;10.90;99.90
21403;DHT22;10862;51.886;17.078;2022-11-15T14:02:03;10.90;99.90
21403;DHT22;10862;51.886;17.078;2022-11-15T14:04:29;10.90;99.90
21403;DHT22;10862;51.886;17.078;2022-11-15T14:07:00;10.90;99.90
21403;DHT22;10862;51.886;17.078;2022-11-15T14:09:31;10.90;99.90
21403;DHT22;10862;51.886;17.078;2022-11-15T14:11:58;10.80;99.90
21403;DHT22;10862;51.886;17.078;2022-11-15T14:14:25;10.70;99.90
21403;DHT22;10862;51.886;17.078;2022-11-15T14:17:00;10.70;99.90
21403;DHT22;10862;51.886;17.078;2022-11-15T14:22:12;10.70;99.90
21403;DHT22;10862;51.886;17.078;2022-11-15T14:24:39;10.80;99.90
21403;DHT22;10862;51.886;17.078;2022-11-15T14:27:26;10.90;99.90
21403;DHT22;10862;51.886;17.078;2022-11-15T14:29:52;10.80;99.90
21403;DHT22;10862;51.886;17.078;2022-11-15T14:32:27;10.90;99.90
21403;DHT22;10862;51.886;17.078;2022-11-15T14:35:02;10.60;99.90
21403;DHT22;10862;51.886;17.078;2022-11-15T14:37:32;10.50;99.90
21403;DHT22;10862;51.886;17.078;2022-11-15T14:40:00;10.30;99.90
21403;DHT22;10862;51.886;17.078;2022-11-15T14:42:26;10.20;99.90
21403;DHT22;10862;51.886;17.078;2022-11-15T14:44:52;10.10;99.90
21403;DHT22;10862;51.886;17.078;2022-11-15T14:47:18;10.00;99.90
21403;DHT22;10862;51.886;17.078;2022-11-15T14:49:44;9.90;99.90
21403;DHT22;10862;51.886;17.078;2022-11-15T14:52:30;9.90;99.90
21403;DHT22;10862;51.886;17.078;2022-11-15T14:55:01;9.80;99.90
21403;DHT22;10862;51.886;17.078;2022-11-15T14:57:28;9.60;99.90
21403;DHT22;10862;51.886;17.078;2022-11-15T14:59:53;9.50;99.90
21403;DHT22;10862;51.886;17.078;2022-11-15T15:02:21;9.40;99.90
21403;DHT22;10862;51.886;17.078;2022-11-15T15:04:48;9.30;99.90
21403;DHT22;10862;51.886;17.078;2022-11-15T15:07:14;9.10;99.90
21403;DHT22;10862;51.886;17.078;2022-11-15T15:09:40;9.20;99.90
21403;DHT22;10862;51.886;17.078;2022-11-15T15:12:15;8.90;99.90
21403;DHT22;10862;51.886;17.078;2022-11-15T15:14:41;8.80;99.90
21403;DHT22;10862;51.886;17.078;2022-11-15T15:17:07;8.70;99.90
21403;DHT22;10862;51.886;17.078;2022-11-15T15:19:33;8.60;99.90
21403;DHT22;10862;51.886;17.078;2022-11-15T15:21:58;8.50;99.90
21403;DHT22;10862;51.886;17.078;2022-11-15T15:24:24;8.20;99.90
21403;DHT22;10862;51.886;17.078;2022-11-15T15:26:49;8.10;99.90
21403;DHT22;10862;51.886;17.078;2022-11-15T15:29:15;7.90;99.90
21403;DHT22;10862;51.886;17.078;2022-11-15T15:31:41;7.80;99.90
21403;DHT22;10862;51.886;17.078;2022-11-15T15:34:06;7.60;99.90
21403;DHT22;10862;51.886;17.078;2022-11-15T15:36:32;7.60;99.90
21403;DHT22;10862;51.886;17.078;2022-11-15T15:38:57;7.50;99.90
21403;DHT22;10862;51.886;17.078;2022-11-15T15:41:23;7.40;99.90
21403;DHT22;10862;51.886;17.078;2022-11-15T15:43:49;7.20;99.90
21403;DHT22;10862;51.886;17.078;2022-11-15T15:46:18;7.20;99.90
21403;DHT22;10862;51.886;17.078;2022-11-15T15:48:44;7.10;99.90
21403;DHT22;10862;51.886;17.078;2022-11-15T15:51:10;7.00;99.90
21403;DHT22;10862;51.886;17.078;2022-11-15T15:53:36;6.90;99.90
21403;DHT22;10862;51.886;17.078;2022-11-15T15:56:01;6.80;99.90
21403;DHT22;10862;51.886;17.078;2022-11-15T15:58:27;6.80;99.90
21403;DHT22;10862;51.886;17.078;2022-11-15T16:00:53;6.80;99.90
21403;DHT22;10862;51.886;17.078;2022-11-15T16:03:18;6.70;99.90
21403;DHT22;10862;51.886;17.078;2022-11-15T16:05:44;6.60;99.90
21403;DHT22;10862;51.886;17.078;2022-11-15T16:08:30;6.30;99.90
21403;DHT22;10862;51.886;17.078;2022-11-15T16:10:56;6.30;99.90
21403;DHT22;10862;51.886;17.078;2022-11-15T16:13:21;6.10;99.90
21403;DHT22;10862;51.886;17.078;2022-11-15T16:15:51;6.10;99.90
21403;DHT22;10862;51.886;17.078;2022-11-15T16:18:17;5.80;99.90
21403;DHT22;10862;51.886;17.078;2022-11-15T16:20:45;5.80;99.90
21403;DHT22;10862;51.886;17.078;2022-11-15T16:23:16;5.70;99.90
21403;DHT22;10862;51.886;17.078;2022-11-15T16:25:54;5.60;99.90
21403;DHT22;10862;51.886;17.078;2022-11-15T16:28:31;5.60;99.90
21403;DHT22;10862;51.886;17.078;2022-11-15T16:31:05;5.50;99.90
21403;DHT22;10862;51.886;17.078;2022-11-15T16:33:31;5.30;99.90
21403;DHT22;10862;51.886;17.078;2022-11-15T16:35:57;5.30;99.90
21403;DHT22;10862;51.886;17.078;2022-11-15T16:38:22;5.30;99.90
21403;DHT22;10862;51.886;17.078;2022-11-15T16:40:48;5.20;99.90
21403;DHT22;10862;51.886;17.078;2022-11-15T16:43:14;5.20;99.90
21403;DHT22;10862;51.886;17.078;2022-11-15T16:45:39;5.10;99.90
21403;DHT22;10862;51.886;17.078;2022-11-15T16:50:20;5.10;99.90
21403;DHT22;10862;51.886;17.078;2022-11-15T16:52:52;5.10;99.90
21403;DHT22;10862;51.886;17.078;2022-11-15T16:55:19;5.20;99.90
21403;DHT22;10862;51.886;17.078;2022-11-15T16:57:45;5.30;99.90
21403;DHT22;10862;51.886;17.078;2022-11-15T17:00:11;5.30;99.90
21403;DHT22;10862;51.886;17.078;2022-11-15T17:02:38;5.20;99.90
21403;DHT22;10862;51.886;17.078;2022-11-15T17:05:04;5.20;99.90
21403;DHT22;10862;51.886;17.078;2022-11-15T17:07:30;5.10;99.90
21403;DHT22;10862;51.886;17.078;2022-11-15T17:09:55;5.20;99.90
21403;DHT22;10862;51.886;17.078;2022-11-15T17:12:21;5.20;99.90
21403;DHT22;10862;51.886;17.078;2022-11-15T17:14:46;5.10;99.90
21403;DHT22;10862;51.886;17.078;2022-11-15T17:17:12;5.20;99.90
21403;DHT22;10862;51.886;17.078;2022-11-15T17:19:38;5.20;99.90
21403;DHT22;10862;51.886;17.078;2022-11-15T17:22:03;5.20;99.90
21403;DHT22;10862;51.886;17.078;2022-11-15T17:24:29;5.20;99.90
21403;DHT22;10862;51.886;17.078;2022-11-15T17:26:55;5.10;99.90
21403;DHT22;10862;51.886;17.078;2022-11-15T17:29:20;5.00;99.90
21403;DHT22;10862;51.886;17.078;2022-11-15T17:31:46;5.00;99.90
21403;DHT22;10862;51.886;17.078;2022-11-15T17:34:12;5.00;99.90
21403;DHT22;10862;51.886;17.078;2022-11-15T17:36:37;5.10;99.90
21403;DHT22;10862;51.886;17.078;2022-11-15T17:39:03;5.10;99.90
21403;DHT22;10862;51.886;17.078;2022-11-15T17:41:30;5.00;99.90
21403;DHT22;10862;51.886;17.078;2022-11-15T17:43:57;5.10;99.90
21403;DHT22;10862;51.886;17.078;2022-11-15T17:46:24;5.10;99.90
21403;DHT22;10862;51.886;17.078;2022-11-15T17:48:50;5.10;99.90
21403;DHT22;10862;51.886;17.078;2022-11-15T17:51:17;5.10;99.90
21403;DHT22;10862;51.886;17.078;2022-11-15T17:53:45;5.10;99.90